This is the latest recevied weather packets stored in our database for station/object ED4YAZ-13. If no packets are shown the sender has not sent any weather packets the latest 10 day(s).
| Time | Temp. | Humidity | Pressure | Rain* | Wind** | Luminosity | Snow |
|---|---|---|---|---|---|---|---|
| 1777882267 | 12.78° C | 68% | 1014.5 hPa | - | - | - | - |
| 1777882260 | 12.78° C | 68% | 1014.5 hPa | - | - | - | - |
| 1777881660 | 12.78° C | 69% | 1014.6 hPa | - | - | - | - |
| 1777881660 | 12.78° C | 69% | 1014.6 hPa | - | - | - | - |
| 1777881060 | 12.78° C | 69% | 1014.6 hPa | - | - | - | - |
| 1777881060 | 12.78° C | 69% | 1014.6 hPa | - | - | - | - |
| 1777880038 | 12.22° C | 70% | 1014.8 hPa | - | - | - | - |
| 1777879978 | 12.22° C | 70% | 1014.8 hPa | - | - | - | - |
| 1777879378 | 12.22° C | 71% | 1014.8 hPa | - | - | - | - |
| 1777878976 | 11.11° C | 72% | 1015.2 hPa | - | - | - | - |
| 1777878778 | 11.11° C | 72% | 1015.2 hPa | - | - | - | - |
| 1777878185 | 11.11° C | 73% | 1015 hPa | - | - | - | - |
| 1777878178 | 11.11° C | 73% | 1015 hPa | - | - | - | - |
| 1777877585 | 11.67° C | 74% | 1014.8 hPa | - | - | - | - |
| 1777876965 | 10.56° C | 77% | 1015.2 hPa | - | - | - | - |
| 1777876365 | 10.56° C | 77% | 1015.1 hPa | - | - | - | - |
| 1777875773 | 10° C | 79% | 1015.4 hPa | - | - | - | - |
| 1777875765 | 10° C | 79% | 1015.4 hPa | - | - | - | - |
| 1777875159 | 9.44° C | 79% | 1015.5 hPa | - | - | - | - |
| 1777874729 | 9.44° C | 79% | 1015.4 hPa | - | - | - | - |
| 1777874556 | 9.44° C | 79% | 1015.4 hPa | - | - | - | - |
| 1777874556 | 9.44° C | 79% | 1015.4 hPa | - | - | - | - |
| 1777873954 | 9.44° C | 79% | 1015.4 hPa | - | - | - | - |
| 1777873350 | 9.44° C | 79% | 1015.3 hPa | - | - | - | - |
| 1777872136 | 9.44° C | 78% | 1015.1 hPa | - | - | - | - |
* Rain since midnight (hover to see other rain measurements)
** Current wind speed in m/s (hover to see current wind gust speed)